createdAt,value
2023-03-26T00:01:41.667Z,10.95
2023-03-26T00:04:09.221Z,10.82
2023-03-26T00:06:39.960Z,11.98
2023-03-26T00:09:13.560Z,7.60
2023-03-26T00:11:40.753Z,13.02
2023-03-26T00:14:09.567Z,10.93
2023-03-26T00:16:36.726Z,10.18
2023-03-26T00:19:04.129Z,11.27
2023-03-26T00:21:31.686Z,11.48
2023-03-26T00:24:04.733Z,9.27
2023-03-26T00:26:37.691Z,9.85
2023-03-26T00:29:05.449Z,9.35
2023-03-26T00:31:33.387Z,10.63
2023-03-26T00:34:03.299Z,11.57
2023-03-26T00:36:30.431Z,14.32
2023-03-26T00:38:57.559Z,11.50
2023-03-26T00:41:27.116Z,9.27
2023-03-26T00:43:57.954Z,10.73
2023-03-26T00:46:27.440Z,9.88
2023-03-26T00:48:54.627Z,12.32
2023-03-26T00:51:22.029Z,11.25
2023-03-26T00:53:50.661Z,9.70
2023-03-26T00:56:18.110Z,9.80
2023-03-26T00:58:46.237Z,9.10
2023-03-26T01:01:16.367Z,13.07
2023-03-26T01:03:57.092Z,12.80
2023-03-26T01:06:36.197Z,11.00
2023-03-26T01:09:17.058Z,12.95
2023-03-26T01:11:44.945Z,10.90
2023-03-26T01:14:23.721Z,8.23
2023-03-26T01:17:01.529Z,9.77
2023-03-26T01:19:57.597Z,9.73
2023-03-26T01:22:26.602Z,9.18
2023-03-26T01:24:56.711Z,10.80
2023-03-26T01:27:28.045Z,8.68
2023-03-26T01:30:01.913Z,8.30
2023-03-26T01:32:37.873Z,6.00
2023-03-26T01:35:41.553Z,5.88
2023-03-26T01:38:14.310Z,8.90
2023-03-26T01:41:04.654Z,7.13
2023-03-26T01:43:51.496Z,15.60
2023-03-26T01:46:19.838Z,8.32
2023-03-26T01:48:48.069Z,9.38
2023-03-26T01:51:27.792Z,9.25
2023-03-26T01:53:55.718Z,10.40
2023-03-26T01:56:57.317Z,14.27
2023-03-26T01:59:36.100Z,10.38
2023-03-26T02:02:12.693Z,10.23
2023-03-26T02:05:09.662Z,10.38
2023-03-26T02:07:56.117Z,10.30
2023-03-26T02:10:28.017Z,9.23
2023-03-26T02:12:55.879Z,10.07
2023-03-26T02:15:23.490Z,8.75
2023-03-26T02:17:52.415Z,8.82
2023-03-26T02:20:20.661Z,8.18
2023-03-26T02:22:48.159Z,12.80
2023-03-26T02:25:20.221Z,7.93
2023-03-26T02:27:50.031Z,6.30
2023-03-26T02:30:25.704Z,7.05
2023-03-26T02:32:59.282Z,4.90
2023-03-26T02:35:30.902Z,7.70
2023-03-26T02:38:00.636Z,8.52
2023-03-26T02:40:28.134Z,7.07
2023-03-26T02:42:56.073Z,6.38
2023-03-26T02:45:23.847Z,7.85
2023-03-26T02:48:09.558Z,9.73
2023-03-26T02:50:43.015Z,6.60
2023-03-26T02:53:31.007Z,8.57
2023-03-26T02:56:29.097Z,11.93
2023-03-26T02:59:16.312Z,10.15
2023-03-26T03:01:46.606Z,10.55
2023-03-26T03:04:17.983Z,7.32
2023-03-26T03:06:46.387Z,8.93
2023-03-26T03:09:15.760Z,7.15
2023-03-26T03:11:42.713Z,8.25
2023-03-26T03:14:10.018Z,11.07
2023-03-26T03:16:38.193Z,9.43
2023-03-26T03:19:12.784Z,8.38
2023-03-26T03:21:41.453Z,9.50
2023-03-26T03:24:09.687Z,8.20
2023-03-26T03:26:42.320Z,8.50
2023-03-26T03:29:21.297Z,11.48
2023-03-26T03:31:50.968Z,7.72
2023-03-26T03:34:38.812Z,11.80
2023-03-26T03:37:07.417Z,7.72
2023-03-26T03:39:50.054Z,10.98
2023-03-26T03:42:21.359Z,6.68
2023-03-26T03:44:50.869Z,10.50
2023-03-26T03:47:43.938Z,10.80
2023-03-26T03:50:11.988Z,9.52
2023-03-26T03:52:48.494Z,10.13
2023-03-26T03:55:17.503Z,10.00
2023-03-26T03:57:49.701Z,7.45
2023-03-26T04:00:21.145Z,8.95
2023-03-26T04:03:06.152Z,11.23
2023-03-26T04:05:34.021Z,8.35
2023-03-26T04:08:01.009Z,8.77
2023-03-26T04:10:51.219Z,7.47
2023-03-26T04:13:37.141Z,7.63
2023-03-26T04:16:19.027Z,9.15
2023-03-26T04:18:49.207Z,7.75
2023-03-26T04:21:16.149Z,13.32
2023-03-26T04:23:45.278Z,14.00
2023-03-26T04:26:38.245Z,6.97
2023-03-26T04:31:39.892Z,10.45
2023-03-26T04:34:14.217Z,8.93
2023-03-26T04:36:56.594Z,7.20
2023-03-26T04:39:30.432Z,11.38
2023-03-26T04:42:19.928Z,10.32
2023-03-26T04:45:03.261Z,11.07
2023-03-26T04:47:31.647Z,7.70
2023-03-26T04:49:58.659Z,8.50
2023-03-26T04:52:25.695Z,8.90
2023-03-26T04:56:18.172Z,9.18
2023-03-26T04:59:04.209Z,18.33
2023-03-26T05:04:06.539Z,8.32
2023-03-26T05:06:34.565Z,9.05
2023-03-26T05:09:08.547Z,8.77
2023-03-26T05:12:01.828Z,7.40
2023-03-26T05:14:31.426Z,10.57
2023-03-26T05:16:59.291Z,9.85
2023-03-26T05:19:26.377Z,9.10
2023-03-26T05:21:53.551Z,8.88
2023-03-26T05:24:20.876Z,8.60
2023-03-26T05:26:47.901Z,11.70
2023-03-26T05:29:17.589Z,9.73
2023-03-26T05:31:48.715Z,11.25
2023-03-26T05:34:16.160Z,10.35
2023-03-26T05:36:44.063Z,12.27
2023-03-26T05:39:35.647Z,12.52
2023-03-26T05:42:21.748Z,10.70
2023-03-26T05:45:02.039Z,12.20
2023-03-26T05:47:32.142Z,11.80
2023-03-26T05:49:59.372Z,14.70
2023-03-26T05:52:26.856Z,16.25
2023-03-26T05:55:20.272Z,12.32
2023-03-26T05:58:06.183Z,11.68
2023-03-26T06:01:06.005Z,10.35
2023-03-26T06:03:53.098Z,8.52
2023-03-26T06:06:21.764Z,11.50
2023-03-26T06:09:01.523Z,10.82
2023-03-26T06:11:30.058Z,9.52
2023-03-26T06:13:56.927Z,10.98
2023-03-26T06:16:26.149Z,11.20
2023-03-26T06:19:11.356Z,10.77
2023-03-26T06:21:58.690Z,13.55
2023-03-26T06:24:33.639Z,14.95
2023-03-26T06:27:23.083Z,12.90
2023-03-26T06:30:22.216Z,10.63
2023-03-26T06:32:59.966Z,13.10
2023-03-26T06:35:31.687Z,13.93
2023-03-26T06:37:59.395Z,13.50
2023-03-26T06:40:27.597Z,12.50
2023-03-26T06:43:14.903Z,12.15
2023-03-26T06:45:56.406Z,12.23
2023-03-26T06:48:49.824Z,12.75
2023-03-26T06:51:35.481Z,18.17
2023-03-26T06:54:08.884Z,13.00
2023-03-26T06:56:47.702Z,9.63
2023-03-26T06:59:32.955Z,11.13
2023-03-26T07:02:18.574Z,11.57
2023-03-26T07:05:04.160Z,9.68
2023-03-26T07:07:49.716Z,10.18
2023-03-26T07:10:19.333Z,9.93
2023-03-26T07:12:57.409Z,10.73
2023-03-26T07:15:44.601Z,9.82
2023-03-26T07:18:34.423Z,16.45
2023-03-26T07:21:04.039Z,9.45
2023-03-26T07:23:33.176Z,12.70
2023-03-26T07:26:33.098Z,8.48
2023-03-26T07:29:17.540Z,9.27
2023-03-26T07:32:18.449Z,9.80
2023-03-26T07:34:59.239Z,11.48
2023-03-26T07:38:12.465Z,13.85
2023-03-26T07:41:33.231Z,11.52
2023-03-26T07:44:41.708Z,9.98
2023-03-26T07:47:32.599Z,11.00
2023-03-26T07:50:21.573Z,15.00
2023-03-26T07:53:07.178Z,12.45
2023-03-26T07:56:02.006Z,18.92
2023-03-26T07:59:17.028Z,14.63
2023-03-26T08:02:27.376Z,13.57
2023-03-26T08:05:26.315Z,12.52
2023-03-26T08:07:56.765Z,15.40
2023-03-26T08:10:39.136Z,11.98
2023-03-26T08:13:06.700Z,16.13
2023-03-26T08:15:50.404Z,17.20
2023-03-26T08:18:27.403Z,14.27
2023-03-26T08:20:58.306Z,16.95
2023-03-26T08:23:50.550Z,18.77
2023-03-26T08:26:44.143Z,14.20
2023-03-26T08:29:33.577Z,15.15
2023-03-26T08:32:06.961Z,15.00
2023-03-26T08:34:35.418Z,13.88
2023-03-26T08:37:02.544Z,13.63
2023-03-26T08:39:29.567Z,13.35
2023-03-26T08:42:33.758Z,16.90
2023-03-26T08:45:16.005Z,15.23
2023-03-26T08:47:55.692Z,11.80
2023-03-26T08:50:44.592Z,9.48
2023-03-26T08:53:43.482Z,14.70
2023-03-26T08:56:38.512Z,10.27
2023-03-26T08:59:46.954Z,9.52
2023-03-26T09:02:44.137Z,5.65
2023-03-26T09:05:54.759Z,7.78
2023-03-26T09:09:00.799Z,10.00
2023-03-26T09:11:45.904Z,6.95
2023-03-26T09:14:34.284Z,7.57
2023-03-26T09:17:19.706Z,6.35
2023-03-26T09:20:01.781Z,5.03
2023-03-26T09:22:50.089Z,7.22
2023-03-26T09:25:32.617Z,5.38
2023-03-26T09:28:22.092Z,6.82
2023-03-26T09:31:13.116Z,7.18
2023-03-26T09:34:27.730Z,7.18
2023-03-26T09:37:56.105Z,7.25
2023-03-26T09:40:37.013Z,7.50
2023-03-26T09:43:38.213Z,8.32
2023-03-26T09:46:21.784Z,5.10
2023-03-26T09:49:27.117Z,5.78
2023-03-26T09:52:11.917Z,5.57
2023-03-26T09:55:20.234Z,6.40
2023-03-26T09:58:20.493Z,7.13
2023-03-26T10:00:47.540Z,7.72
2023-03-26T10:03:38.321Z,5.45
2023-03-26T10:06:37.434Z,7.90
2023-03-26T10:09:25.670Z,6.07
2023-03-26T10:12:06.510Z,7.60
2023-03-26T10:15:04.453Z,11.35
2023-03-26T10:17:41.317Z,8.68
2023-03-26T10:20:31.053Z,8.57
2023-03-26T10:23:16.886Z,6.53
2023-03-26T10:25:51.712Z,9.82
2023-03-26T10:28:31.643Z,5.38
2023-03-26T10:31:38.373Z,4.60
2023-03-26T10:34:28.517Z,7.05
2023-03-26T10:37:01.087Z,5.07
2023-03-26T10:39:43.694Z,6.63
2023-03-26T10:42:44.551Z,6.10
2023-03-26T10:45:38.718Z,6.60
2023-03-26T10:48:11.991Z,16.95
2023-03-26T10:51:17.749Z,10.02
2023-03-26T10:54:21.430Z,6.88
2023-03-26T10:56:51.133Z,6.80
2023-03-26T10:59:19.409Z,7.75
2023-03-26T11:02:00.532Z,5.50
2023-03-26T11:04:46.421Z,12.60
2023-03-26T11:07:22.821Z,7.15
2023-03-26T11:10:11.940Z,8.02
2023-03-26T11:12:50.807Z,5.75
2023-03-26T11:15:23.549Z,6.63
2023-03-26T11:18:29.088Z,5.53
2023-03-26T11:21:25.037Z,5.47
2023-03-26T11:24:05.202Z,7.45
2023-03-26T11:26:45.727Z,8.00
2023-03-26T11:29:31.452Z,7.38
2023-03-26T11:32:02.836Z,7.10
2023-03-26T11:34:50.430Z,5.72
2023-03-26T11:37:26.771Z,5.72
2023-03-26T11:39:59.528Z,8.93
2023-03-26T11:42:29.824Z,6.63
2023-03-26T11:45:02.098Z,7.55
2023-03-26T11:47:53.718Z,6.47
2023-03-26T11:50:27.334Z,6.32
2023-03-26T11:53:03.308Z,8.13
2023-03-26T11:55:32.034Z,5.95
2023-03-26T11:58:01.319Z,7.63
2023-03-26T12:00:29.710Z,7.65
2023-03-26T12:02:59.034Z,6.43
2023-03-26T12:05:33.708Z,14.02
2023-03-26T12:08:19.762Z,7.78
2023-03-26T12:11:01.289Z,6.32
2023-03-26T12:13:39.287Z,7.55
2023-03-26T12:16:17.310Z,6.18
2023-03-26T12:18:46.607Z,5.90
2023-03-26T12:21:19.271Z,5.75
2023-03-26T12:24:01.283Z,7.88
2023-03-26T12:26:49.011Z,5.88
2023-03-26T12:29:18.876Z,8.27
2023-03-26T12:31:46.033Z,5.90
2023-03-26T12:34:22.295Z,8.93
2023-03-26T12:36:55.454Z,6.03
2023-03-26T12:40:08.049Z,4.97
2023-03-26T12:44:55.849Z,10.73
2023-03-26T12:45:23.948Z,6.05
2023-03-26T12:47:59.946Z,7.47
2023-03-26T12:50:41.529Z,8.18
2023-03-26T12:53:37.755Z,7.80
2023-03-26T12:56:21.607Z,6.82
2023-03-26T12:58:55.380Z,7.82
2023-03-26T13:01:34.452Z,7.85
2023-03-26T13:04:19.824Z,6.55
2023-03-26T13:07:01.391Z,7.18
2023-03-26T13:09:35.742Z,10.10
2023-03-26T13:12:35.672Z,7.55
2023-03-26T13:15:26.709Z,6.43
2023-03-26T13:18:12.348Z,9.48
2023-03-26T13:20:55.701Z,7.10
2023-03-26T13:23:26.803Z,9.27
2023-03-26T13:26:29.500Z,9.25
2023-03-26T13:29:14.595Z,8.82
2023-03-26T13:31:56.932Z,8.88
2023-03-26T13:34:29.966Z,5.57
2023-03-26T13:37:22.701Z,7.47
2023-03-26T13:39:58.610Z,8.40
2023-03-26T13:42:52.437Z,9.27
2023-03-26T13:45:40.885Z,9.30
2023-03-26T15:06:53.311Z,18.52
2023-03-26T15:09:50.287Z,20.42
2023-03-26T15:12:53.829Z,14.63
2023-03-26T15:15:54.052Z,15.73
2023-03-26T15:18:55.109Z,15.20
2023-03-26T15:22:00.322Z,16.40
2023-03-26T15:24:32.048Z,18.00
2023-03-26T15:30:20.145Z,20.52
2023-03-26T15:33:12.777Z,15.82
2023-03-26T15:39:07.260Z,15.32
2023-03-26T15:44:40.943Z,20.02
2023-03-26T15:47:51.073Z,19.25
2023-03-26T15:50:41.674Z,19.98
2023-03-26T15:53:22.136Z,24.33
2023-03-26T16:04:50.368Z,18.50
2023-03-26T16:10:57.428Z,18.02
2023-03-26T16:13:47.445Z,15.02
2023-03-26T16:21:55.365Z,20.27
2023-03-26T17:11:21.088Z,4.35
2023-03-26T17:45:35.358Z,5.35
2023-03-26T19:55:59.638Z,9.23
2023-03-26T20:40:56.062Z,8.60
